Time;durP1;ratioP1;P1;durP2;ratioP2;P2;SDS_P1;SDS_P2;PMS_P1;PMS_P2;Temp;Humidity;BMP_temperature;BMP_pressure;BME280_temperature;BME280_humidity;BME280_pressure;Samples;Min_cycle;Max_cycle;Signal;HPM_P1;HPM_P2
2023/03/06 00:00:47;;;;;;;6.43;2.45;;;17.50;66.80;;;;;;10546082;28;20040;-24
2023/03/06 00:05:49;;;;;;;9.82;2.40;;;17.40;66.80;;;;;;10534151;28;20139;-23
2023/03/06 00:10:52;;;;;;;3.90;2.10;;;17.40;67.00;;;;;;10527086;28;20146;-25
2023/03/06 00:15:57;;;;;;;3.42;1.73;;;17.40;66.70;;;;;;10539040;28;20074;-23
2023/03/06 00:21:00;;;;;;;3.13;1.95;;;16.70;71.10;;;;;;10532693;28;20885;-23
2023/03/06 00:26:07;;;;;;;5.05;2.08;;;17.30;68.00;;;;;;10537185;28;20769;-24
2023/03/06 00:31:08;;;;;;;3.13;1.33;;;17.10;68.60;;;;;;10534215;28;20047;-26
2023/03/06 00:36:11;;;;;;;2.27;1.23;;;15.30;76.80;;;;;;10545133;28;20054;-24
2023/03/06 00:41:14;;;;;;;5.43;2.60;;;15.00;75.00;;;;;;10536401;28;20497;-22
2023/03/06 00:46:16;;;;;;;4.97;2.20;;;16.60;70.40;;;;;;10529715;28;20142;-24
2023/03/06 00:51:18;;;;;;;9.67;2.10;;;17.00;68.90;;;;;;10544096;28;20369;-24
2023/03/06 00:56:21;;;;;;;6.30;1.75;;;17.00;68.10;;;;;;10533278;28;20143;-24
2023/03/06 01:01:23;;;;;;;4.72;1.88;;;17.00;68.20;;;;;;10542346;28;20048;-23
2023/03/06 01:06:25;;;;;;;2.60;1.30;;;17.10;67.50;;;;;;10543507;28;20099;-23
2023/03/06 01:11:28;;;;;;;7.67;1.67;;;17.10;67.20;;;;;;10536338;28;20135;-23
2023/03/06 01:16:30;;;;;;;7.07;1.38;;;17.10;66.90;;;;;;10539067;28;20513;-24
2023/03/06 01:21:32;;;;;;;4.68;1.60;;;17.00;67.10;;;;;;10541858;28;20618;-24
2023/03/06 01:26:36;;;;;;;2.90;1.50;;;17.10;66.90;;;;;;10534063;28;20070;-24
2023/03/06 01:31:38;;;;;;;3.78;2.28;;;17.00;67.20;;;;;;10537617;28;20123;-22
2023/03/06 01:36:40;;;;;;;3.83;1.57;;;17.00;67.20;;;;;;10545022;28;20126;-24
2023/03/06 01:41:43;;;;;;;4.82;1.33;;;16.90;66.90;;;;;;10536085;28;20039;-23
2023/03/06 01:46:45;;;;;;;3.03;1.45;;;16.90;67.00;;;;;;10531325;28;20496;-26
2023/03/06 01:51:50;;;;;;;2.40;1.42;;;16.90;67.40;;;;;;10533047;28;20040;-22
2023/03/06 01:57:00;;;;;;;3.30;1.42;;;16.90;67.10;;;;;;10521440;28;20052;-23
2023/03/06 02:02:03;;;;;;;2.58;1.13;;;16.90;67.50;;;;;;10537969;28;20071;-24
2023/03/06 02:07:07;;;;;;;2.58;1.08;;;16.80;67.60;;;;;;10525026;28;20119;-23
2023/03/06 02:12:13;;;;;;;8.43;1.40;;;16.80;67.30;;;;;;10531533;28;20120;-26
2023/03/06 02:17:18;;;;;;;1.50;0.80;;;16.70;67.80;;;;;;10533523;28;20234;-24
2023/03/06 02:22:20;;;;;;;3.22;1.00;;;16.80;67.10;;;;;;10524502;28;20158;-23
2023/03/06 02:27:24;;;;;;;2.10;0.90;;;16.70;67.80;;;;;;10537173;28;20512;-24
2023/03/06 02:32:26;;;;;;;5.30;1.20;;;16.70;67.50;;;;;;10538732;28;20150;-24
2023/03/06 02:37:29;;;;;;;3.10;0.90;;;16.70;67.30;;;;;;10536738;28;20048;-24
2023/03/06 02:42:32;;;;;;;1.55;1.00;;;16.70;67.60;;;;;;10525207;28;20113;-24
2023/03/06 02:47:34;;;;;;;1.23;0.70;;;16.60;67.60;;;;;;10527386;28;20461;-24
2023/03/06 02:52:36;;;;;;;2.17;0.67;;;16.60;68.20;;;;;;10540322;28;20066;-23
2023/03/06 02:57:39;;;;;;;2.83;0.70;;;16.60;67.60;;;;;;10540320;28;20075;-24
2023/03/06 03:02:42;;;;;;;1.33;0.82;;;16.60;67.40;;;;;;10527367;28;20072;-22
2023/03/06 03:07:43;;;;;;;1.75;0.73;;;16.50;67.70;;;;;;10538859;28;20070;-23
2023/03/06 03:12:46;;;;;;;4.27;0.90;;;16.50;68.10;;;;;;10534279;28;20492;-23
2023/03/06 03:17:48;;;;;;;1.65;0.65;;;16.50;67.40;;;;;;10528185;28;20193;-21
2023/03/06 03:22:52;;;;;;;1.27;0.63;;;16.50;67.60;;;;;;10529660;28;20082;-22
2023/03/06 03:27:55;;;;;;;1.15;0.55;;;16.30;68.40;;;;;;10536299;28;20552;-23
2023/03/06 03:32:57;;;;;;;0.90;0.52;;;16.30;68.50;;;;;;10539608;28;20040;-25
2023/03/06 03:37:59;;;;;;;1.20;0.70;;;16.40;67.80;;;;;;10536161;28;20040;-24
2023/03/06 03:43:03;;;;;;;1.45;0.52;;;16.10;62.80;;;;;;10541070;28;20079;-25
2023/03/06 03:48:05;;;;;;;1.00;0.50;;;16.10;68.90;;;;;;10535940;28;20050;-24
2023/03/06 03:53:07;;;;;;;1.73;0.70;;;16.40;67.70;;;;;;10533065;28;20056;-23
2023/03/06 03:58:10;;;;;;;1.20;0.60;;;16.20;68.70;;;;;;10535981;28;20117;-24
2023/03/06 04:03:12;;;;;;;0.77;0.50;;;16.20;69.20;;;;;;10536054;28;20035;-23
2023/03/06 04:08:14;;;;;;;1.67;0.30;;;15.20;65.40;;;;;;10536018;28;20079;-22
2023/03/06 04:13:19;;;;;;;1.15;0.90;;;14.30;83.00;;;;;;10537602;28;20500;-23
2023/03/06 04:18:22;;;;;;;0.65;0.60;;;13.60;74.00;;;;;;10533854;28;20105;-23
2023/03/06 04:23:24;;;;;;;;;;;11.70;68.50;;;;;;10540661;28;20090;-24
2023/03/06 04:28:27;;;;;;;3.08;1.25;;;13.20;92.00;;;;;;10540357;28;20391;-24
2023/03/06 04:33:29;;;;;;;3.90;2.17;;;10.80;96.60;;;;;;10538101;28;20047;-24
2023/03/06 04:38:31;;;;;;;2.22;1.20;;;11.70;91.80;;;;;;10553872;28;20052;-23
2023/03/06 04:43:34;;;;;;;2.28;1.23;;;10.80;99.90;;;;;;10532408;28;20090;-24
2023/03/06 04:48:36;;;;;;;1.25;0.73;;;11.90;85.90;;;;;;10538994;28;20131;-25
2023/03/06 04:53:38;;;;;;;2.45;0.77;;;12.90;93.70;;;;;;10533944;28;20048;-23
2023/03/06 04:58:42;;;;;;;1.53;0.80;;;14.20;86.80;;;;;;10533879;28;20048;-26
2023/03/06 05:03:44;;;;;;;1.90;0.80;;;15.30;75.30;;;;;;10537876;28;20125;-24
2023/03/06 05:08:47;;;;;;;0.52;0.52;;;14.70;80.40;;;;;;10536288;28;20136;-25
2023/03/06 05:13:50;;;;;;;2.20;0.77;;;16.00;69.40;;;;;;10540917;28;20470;-25
2023/03/06 05:18:52;;;;;;;2.85;0.70;;;15.40;69.70;;;;;;10536532;28;20039;-24
2023/03/06 05:23:54;;;;;;;2.23;0.77;;;15.10;70.10;;;;;;10537211;28;20423;-23
2023/03/06 05:28:57;;;;;;;1.80;0.93;;;13.60;90.70;;;;;;10536585;28;20043;-24
2023/03/06 05:33:59;;;;;;;3.80;1.05;;;11.30;98.90;;;;;;10533675;28;20059;-26
2023/03/06 05:39:01;;;;;;;0.93;0.60;;;13.70;90.50;;;;;;10532052;28;20048;-24
2023/03/06 05:44:04;;;;;;;4.23;0.87;;;16.30;68.70;;;;;;10535233;28;20036;-24
2023/03/06 05:49:06;;;;;;;0.50;0.35;;;16.40;65.30;;;;;;10544425;28;20465;-24
2023/03/06 05:54:08;;;;;;;1.43;0.70;;;16.20;65.30;;;;;;10528892;28;20047;-23
2023/03/06 05:59:12;;;;;;;2.40;0.73;;;14.40;75.50;;;;;;10535973;28;20486;-24
2023/03/06 06:04:14;;;;;;;3.03;0.70;;;14.50;81.60;;;;;;10524356;28;20067;-25
2023/03/06 06:09:15;;;;;;;2.50;0.67;;;14.40;84.20;;;;;;10533397;28;20431;-24
2023/03/06 06:14:18;;;;;;;3.33;1.17;;;15.20;77.80;;;;;;10534129;28;20048;-24
2023/03/06 06:19:21;;;;;;;1.63;0.60;;;16.30;69.00;;;;;;10531309;28;20134;-24
2023/03/06 06:24:25;;;;;;;5.35;1.25;;;16.20;67.60;;;;;;10535312;28;20048;-24
2023/03/06 06:29:28;;;;;;;7.25;0.90;;;16.70;66.10;;;;;;10536161;28;20554;-22
2023/03/06 06:34:30;;;;;;;1.20;0.65;;;17.00;64.60;;;;;;10527514;28;20516;-24
2023/03/06 06:39:32;;;;;;;6.40;1.33;;;17.00;64.30;;;;;;10532158;28;20161;-24
2023/03/06 06:44:35;;;;;;;12.73;1.53;;;17.00;65.10;;;;;;10529229;28;20078;-25
2023/03/06 06:49:38;;;;;;;9.40;1.80;;;16.80;66.40;;;;;;10533329;28;20481;-24
2023/03/06 06:54:40;;;;;;;14.80;1.80;;;16.80;67.10;;;;;;10520432;28;20476;-24
2023/03/06 06:59:43;;;;;;;11.40;1.40;;;16.80;67.00;;;;;;10528579;28;20044;-23
2023/03/06 07:04:45;;;;;;;17.05;2.80;;;16.80;67.10;;;;;;10527926;28;20549;-24
2023/03/06 07:15:26;;;;;;;5.82;0.85;;;16.80;66.90;;;;;;10429497;27;2178542;-24
2023/03/06 07:20:27;;;;;;;3.70;1.08;;;16.80;67.30;;;;;;10480430;28;20041;-24
2023/03/06 07:25:29;;;;;;;7.33;1.90;;;16.70;68.10;;;;;;10458611;28;20072;-24
2023/03/06 07:30:33;;;;;;;3.90;1.30;;;16.80;67.50;;;;;;10472347;28;20057;-24
2023/03/06 07:35:35;;;;;;;8.77;2.03;;;16.90;66.60;;;;;;10473679;28;20439;-24
2023/03/06 07:40:37;;;;;;;7.57;1.10;;;16.70;68.40;;;;;;10469282;28;20043;-23
2023/03/06 07:45:40;;;;;;;2.50;1.30;;;16.80;67.60;;;;;;10466715;28;20255;-23
2023/03/06 07:50:42;;;;;;;11.65;1.77;;;16.90;67.00;;;;;;10455595;28;20143;-23
2023/03/06 07:55:44;;;;;;;11.03;4.97;;;16.80;67.10;;;;;;10467802;28;20803;-23
2023/03/06 08:00:48;;;;;;;26.88;4.68;;;11.40;87.90;;;;;;10468458;28;21458;-24
2023/03/06 08:05:50;;;;;;;18.27;4.03;;;12.50;97.30;;;;;;10475399;28;20037;-24
2023/03/06 08:10:52;;;;;;;36.80;4.83;;;13.80;76.40;;;;;;10471819;28;20045;-24
2023/03/06 08:15:55;;;;;;;39.97;5.50;;;13.50;92.50;;;;;;10473622;28;20538;-22
2023/03/06 08:21:04;;;;;;;39.10;6.65;;;15.30;78.50;;;;;;10470015;28;20044;-23
2023/03/06 08:26:08;;;;;;;22.63;6.15;;;15.00;82.40;;;;;;10447048;28;20039;-25
2023/03/06 08:31:13;;;;;;;19.98;5.10;;;13.20;87.00;;;;;;10439355;28;20099;-24
2023/03/06 08:36:15;;;;;;;73.28;8.50;;;12.20;77.40;;;;;;10446453;28;20893;-25
2023/03/06 08:41:17;;;;;;;23.37;6.47;;;13.70;80.10;;;;;;10447021;28;20092;-23
2023/03/06 08:46:22;;;;;;;42.97;7.47;;;12.70;73.10;;;;;;10442893;28;20151;-25
2023/03/06 08:51:25;;;;;;;40.63;6.32;;;11.70;94.90;;;;;;10427793;28;20064;-25
2023/03/06 08:56:27;;;;;;;;;;;13.00;92.10;;;;;;10436719;28;20041;-25
2023/03/06 09:01:33;;;;;;;267.23;25.45;;;13.40;68.50;;;;;;10425106;28;19964;-24
2023/03/06 09:06:37;;;;;;;129.43;12.15;;;14.60;88.90;;;;;;10450938;28;20591;-25
2023/03/06 09:11:39;;;;;;;299.17;25.92;;;11.20;99.90;;;;;;10452238;28;20060;-24
2023/03/06 09:16:42;;;;;;;730.17;65.07;;;12.60;90.10;;;;;;10429302;28;20072;-25
2023/03/06 09:21:44;;;;;;;888.60;89.30;;;14.70;86.80;;;;;;10429203;28;20045;-26
2023/03/06 09:26:46;;;;;;;926.73;91.40;;;15.30;81.00;;;;;;10423342;28;20556;-25
2023/03/06 09:31:49;;;;;;;442.43;43.50;;;14.90;81.10;;;;;;10417975;28;20055;-25
2023/03/06 09:36:51;;;;;;;526.65;47.15;;;12.80;93.40;;;;;;10420337;28;20511;-25
2023/03/06 09:41:54;;;;;;;368.90;38.23;;;13.40;92.20;;;;;;10413026;28;20073;-25
2023/03/06 09:47:22;;;;;;;349.77;33.75;;;11.70;98.00;;;;;;10420351;28;20038;-24
2023/03/06 09:52:34;;;;;;;567.10;62.83;;;11.90;93.60;;;;;;10422940;28;20053;-25
2023/03/06 09:57:38;;;;;;;9.10;4.40;;;15.20;82.10;;;;;;10436760;28;20068;-25
2023/03/06 10:02:46;;;;;;;643.45;67.80;;;11.40;74.00;;;;;;10435007;28;20053;-25
2023/03/06 10:07:53;;;;;;;465.08;47.08;;;14.20;91.80;;;;;;10429234;28;20053;-23
2023/03/06 10:13:02;;;;;;;229.77;23.95;;;14.50;88.90;;;;;;10434198;28;20068;-23
2023/03/06 10:18:06;;;;;;;72.57;11.00;;;14.10;90.40;;;;;;10431866;28;20053;-24
2023/03/06 10:23:40;;;;;;;135.77;15.25;;;9.20;92.40;;;;;;10425207;28;20037;-25
2023/03/06 10:28:44;;;;;;;42.92;8.05;;;10.90;99.90;;;;;;10440063;28;20497;-24
2023/03/06 10:33:54;;;;;;;107.78;13.63;;;10.80;98.10;;;;;;10443304;28;20053;-24
2023/03/06 10:38:58;;;;;;;75.22;10.00;;;9.80;99.90;;;;;;10425269;28;20038;-24
2023/03/06 10:44:21;;;;;;;225.95;28.10;;;11.20;88.40;;;;;;10417241;28;20069;-25
2023/03/06 10:49:28;;;;;;;127.22;15.00;;;11.50;93.60;;;;;;10437428;28;20053;-24
2023/03/06 10:54:32;;;;;;;403.98;43.65;;;11.70;98.10;;;;;;10416342;28;20863;-26
2023/03/06 10:59:34;;;;;;;398.77;43.70;;;12.10;99.10;;;;;;10433271;28;20053;-26
2023/03/06 11:04:49;;;;;;;441.23;49.90;;;11.70;68.80;;;;;;10444590;28;20072;-25
2023/03/06 11:10:19;;;;;;;788.97;95.18;;;10.20;77.80;;;;;;10458933;28;20041;-23
2023/03/06 11:15:22;;;;;;;157.68;17.98;;;13.60;90.50;;;;;;10441539;28;20139;-23
2023/03/06 11:20:29;;;;;;;529.95;63.22;;;11.40;98.50;;;;;;10432352;28;20123;-26
2023/03/06 11:25:34;;;;;;;557.10;63.17;;;12.00;76.70;;;;;;10430610;28;20459;-23
2023/03/06 11:30:42;;;;;;;606.90;67.85;;;11.40;99.90;;;;;;10428411;28;20152;-23
2023/03/06 11:35:51;;;;;;;34.50;7.55;;;10.90;99.90;;;;;;10437610;28;20478;-24
2023/03/06 11:40:55;;;;;;;64.85;9.13;;;9.20;83.00;;;;;;10429507;28;20458;-23
2023/03/06 11:46:05;;;;;;;9.60;4.80;;;8.70;99.90;;;;;;10438246;28;20132;-23
2023/03/06 11:51:14;;;;;;;88.18;13.35;;;10.50;96.00;;;;;;10423279;28;20437;-23
2023/03/06 11:56:30;;;;;;;563.88;64.80;;;9.90;99.90;;;;;;10425886;28;20049;-22
2023/03/06 12:01:35;;;;;;;718.03;85.85;;;12.10;96.10;;;;;;10436073;28;20045;-24
2023/03/06 12:06:46;;;;;;;23.20;6.38;;;10.50;99.90;;;;;;10431424;28;20075;-24
2023/03/06 12:11:57;;;;;;;730.53;82.38;;;9.50;96.20;;;;;;10452589;28;20076;-22
2023/03/06 12:17:14;;;;;;;718.70;80.95;;;12.60;82.80;;;;;;10430913;28;20517;-23
2023/03/06 12:22:29;;;;;;;591.28;72.60;;;10.80;92.80;;;;;;10448145;28;20437;-23
2023/03/06 12:27:38;;;;;;;377.27;42.53;;;10.90;99.50;;;;;;10431971;28;20045;-23
2023/03/06 12:32:48;;;;;;;111.15;17.23;;;12.00;99.90;;;;;;10435540;28;20469;-24
2023/03/06 12:38:04;;;;;;;147.40;18.77;;;10.00;93.00;;;;;;10435355;28;20048;-24
2023/03/06 12:43:37;;;;;;;201.25;24.75;;;10.20;99.90;;;;;;10443511;28;20130;-24
2023/03/06 12:48:41;;;;;;;;;;;9.80;90.20;;;;;;10433524;28;20561;-24
2023/03/06 12:53:46;;;;;;;182.38;24.50;;;10.30;82.20;;;;;;10425652;28;19917;-21
2023/03/06 12:58:50;;;;;;;380.02;43.13;;;9.80;99.90;;;;;;10432147;28;20041;-23
2023/03/06 13:04:05;;;;;;;315.02;36.33;;;10.30;81.40;;;;;;10438425;28;20196;-23
2023/03/06 13:09:19;;;;;;;443.60;50.65;;;10.50;99.90;;;;;;10438532;28;20442;-24
2023/03/06 13:14:26;;;;;;;446.77;52.42;;;10.50;99.90;;;;;;10450647;28;20055;-24
2023/03/06 13:19:28;;;;;;;548.63;56.92;;;12.30;99.90;;;;;;10438649;28;20041;-24
2023/03/06 13:24:33;;;;;;;493.58;55.50;;;11.60;99.90;;;;;;10439883;28;20037;-24
2023/03/06 13:30:21;;;;;;;131.38;23.65;;;12.60;99.90;;;;;;10430349;28;20057;-24
2023/03/06 13:35:48;;;;;;;188.23;24.52;;;10.80;99.90;;;;;;10428641;28;20037;-24
2023/03/06 13:40:51;;;;;;;136.55;19.55;;;11.00;92.60;;;;;;10421134;28;20437;-24
2023/03/06 13:45:53;;;;;;;27.08;12.23;;;10.10;99.90;;;;;;10435533;28;20046;-26
2023/03/06 13:50:56;;;;;;;122.60;18.90;;;9.50;94.70;;;;;;10434250;28;20084;-23
2023/03/06 13:56:10;;;;;;;102.47;15.55;;;13.10;93.00;;;;;;10440087;28;20045;-23
2023/03/06 14:01:23;;;;;;;73.20;11.85;;;12.90;97.30;;;;;;10421203;28;20114;-23
2023/03/06 14:06:51;;;;;;;75.90;10.70;;;12.40;95.00;;;;;;10436237;28;20060;-23
2023/03/06 14:11:59;;;;;;;54.17;9.60;;;14.00;92.10;;;;;;10428147;28;20140;-22
2023/03/06 14:17:03;;;;;;;47.28;10.45;;;12.90;89.70;;;;;;10431022;28;20041;-24
2023/03/06 14:22:06;;;;;;;31.35;11.43;;;13.40;91.90;;;;;;10427394;28;20045;-23
2023/03/06 14:27:17;;;;;;;20.75;6.03;;;12.10;92.70;;;;;;10430353;28;20697;-23
2023/03/06 14:32:22;;;;;;;37.13;5.88;;;10.90;93.20;;;;;;10420212;28;20042;-31
2023/03/06 14:37:24;;;;;;;23.38;4.03;;;11.20;91.20;;;;;;10442000;28;20045;-24
2023/03/06 14:42:29;;;;;;;10.67;4.57;;;11.20;91.50;;;;;;10440727;28;20472;-23
2023/03/06 14:47:33;;;;;;;17.90;2.88;;;10.80;71.40;;;;;;10428937;28;20048;-23
2023/03/06 14:52:36;;;;;;;7.88;3.35;;;12.00;94.90;;;;;;10429219;28;20136;-23
2023/03/06 14:57:39;;;;;;;10.45;3.85;;;11.80;61.50;;;;;;10428747;28;20839;-24
2023/03/06 15:02:41;;;;;;;20.17;6.40;;;11.10;78.60;;;;;;10433705;28;20056;-24
2023/03/06 15:07:44;;;;;;;7.00;3.20;;;8.90;98.50;;;;;;10439648;28;20045;-24
2023/03/06 15:12:47;;;;;;;7.05;3.20;;;10.20;80.10;;;;;;10439934;28;20140;-23
2023/03/06 15:17:50;;;;;;;6.72;3.17;;;12.00;73.60;;;;;;10433605;28;20041;-25
2023/03/06 15:22:52;;;;;;;9.35;4.40;;;12.60;77.40;;;;;;10435415;28;20050;-24
2023/03/06 15:27:57;;;;;;;24.33;7.43;;;11.50;86.40;;;;;;10426741;28;20052;-23
2023/03/06 15:33:10;;;;;;;13.45;4.90;;;10.20;85.60;;;;;;10425982;28;20522;-24
2023/03/06 15:38:26;;;;;;;;;;;10.40;99.90;;;;;;10452597;28;20067;-23
2023/03/06 15:43:34;;;;;;;15.20;6.90;;;9.40;95.30;;;;;;10434547;28;20413;-23
2023/03/06 15:48:35;;;;;;;18.65;7.50;;;9.40;94.50;;;;;;10435877;28;20728;-23
2023/03/06 15:53:38;;;;;;;20.10;8.23;;;9.60;98.60;;;;;;10426714;28;20050;-23
2023/03/06 15:58:42;;;;;;;17.75;8.20;;;8.30;99.90;;;;;;10435259;28;20045;-23
2023/03/06 16:03:45;;;;;;;16.10;7.30;;;8.60;98.40;;;;;;10437598;28;20038;-24
2023/03/06 16:08:47;;;;;;;15.90;7.40;;;8.80;99.90;;;;;;10439641;28;20055;-25
2023/03/06 16:13:50;;;;;;;14.27;7.03;;;8.80;99.90;;;;;;10442810;28;20088;-24
2023/03/06 16:18:52;;;;;;;13.05;5.32;;;8.50;99.90;;;;;;10440189;28;20132;-24
2023/03/06 16:23:54;;;;;;;17.95;8.27;;;11.20;96.20;;;;;;10446431;28;20065;-25
2023/03/06 16:28:57;;;;;;;16.07;7.47;;;9.50;99.90;;;;;;10437580;28;20049;-25
2023/03/06 16:33:59;;;;;;;16.10;7.55;;;9.40;99.90;;;;;;10443001;28;20888;-24
2023/03/06 16:39:02;;;;;;;13.57;5.95;;;10.90;98.50;;;;;;10445746;28;20040;-24
2023/03/06 16:44:09;;;;;;;15.93;8.85;;;11.90;98.60;;;;;;10440295;28;20042;-24
2023/03/06 16:49:15;;;;;;;16.70;7.25;;;11.10;99.90;;;;;;10435246;28;20103;-25
2023/03/06 16:54:17;;;;;;;14.93;7.15;;;11.70;99.90;;;;;;10421441;28;20065;-24
2023/03/06 16:59:20;;;;;;;21.90;8.97;;;11.60;95.80;;;;;;10427255;28;20120;-24
2023/03/06 17:04:22;;;;;;;15.73;8.60;;;11.50;99.90;;;;;;10431421;28;20131;-24
2023/03/06 17:09:24;;;;;;;11.77;4.23;;;13.20;90.30;;;;;;10424705;28;20681;-24
2023/03/06 17:14:27;;;;;;;19.30;7.30;;;14.90;78.60;;;;;;10435818;28;20392;-24
2023/03/06 17:19:29;;;;;;;15.98;6.85;;;12.50;94.30;;;;;;10441118;28;20053;-24
2023/03/06 17:24:31;;;;;;;15.70;8.73;;;12.40;86.20;;;;;;10441873;28;20051;-25
2023/03/06 17:29:34;;;;;;;20.37;9.97;;;10.70;95.70;;;;;;10440649;28;20725;-24
2023/03/06 17:34:36;;;;;;;22.65;6.68;;;10.10;99.30;;;;;;10429416;28;20635;-27
2023/03/06 17:39:39;;;;;;;17.23;7.53;;;10.10;99.90;;;;;;10438204;28;20128;-24
2023/03/06 17:44:42;;;;;;;11.30;5.93;;;12.10;98.90;;;;;;10437097;28;20113;-27
2023/03/06 17:49:44;;;;;;;13.07;3.55;;;13.20;93.90;;;;;;10438170;28;20050;-22
2023/03/06 17:54:46;;;;;;;15.18;5.57;;;15.10;81.90;;;;;;10438753;28;20148;-25
2023/03/06 17:59:51;;;;;;;18.00;7.87;;;13.80;89.80;;;;;;10433403;28;20285;-26
2023/03/06 18:04:56;;;;;;;15.40;8.98;;;13.00;90.80;;;;;;10433691;28;20127;-23
2023/03/06 18:09:58;;;;;;;15.50;5.93;;;13.90;73.50;;;;;;10423549;28;21027;-24
2023/03/06 18:15:02;;;;;;;7.03;4.10;;;14.70;79.10;;;;;;10433647;28;20103;-24
2023/03/06 18:20:05;;;;;;;10.70;4.32;;;15.30;80.00;;;;;;10436792;28;20074;-24
2023/03/06 18:25:07;;;;;;;12.50;4.72;;;16.00;73.00;;;;;;10434381;28;20045;-27
2023/03/06 18:30:11;;;;;;;;;;;16.30;70.20;;;;;;10434340;28;20055;-25
2023/03/06 18:35:13;;;;;;;6.80;3.22;;;16.60;68.80;;;;;;10429346;28;19924;-27
2023/03/06 18:40:15;;;;;;;13.77;5.77;;;15.10;79.70;;;;;;10428378;28;20041;-24
2023/03/06 18:45:19;;;;;;;15.37;8.27;;;15.10;83.00;;;;;;10420641;28;20582;-23
2023/03/06 18:50:21;;;;;;;15.40;7.93;;;11.30;99.90;;;;;;10427234;28;20530;-24
2023/03/06 18:55:22;;;;;;;17.40;7.67;;;12.10;96.50;;;;;;10442869;28;20045;-24
2023/03/06 19:00:26;;;;;;;13.00;5.35;;;8.80;99.90;;;;;;10432027;28;20673;-24
2023/03/06 19:05:28;;;;;;;13.57;4.88;;;9.10;99.90;;;;;;10425693;28;20040;-23
2023/03/06 19:10:30;;;;;;;17.77;5.65;;;10.10;99.90;;;;;;10433518;28;20682;-24
2023/03/06 19:15:34;;;;;;;7.28;3.72;;;8.20;99.90;;;;;;10430888;28;20285;-24
2023/03/06 19:20:35;;;;;;;6.55;2.60;;;9.00;99.90;;;;;;10422749;28;20128;-24
2023/03/06 19:25:38;;;;;;;8.63;2.60;;;11.20;99.90;;;;;;10428572;28;20584;-24
2023/03/06 19:30:41;;;;;;;4.85;1.73;;;11.90;99.90;;;;;;10429063;28;20049;-22
2023/03/06 19:35:43;;;;;;;7.78;1.35;;;12.20;99.90;;;;;;10422619;28;20077;-23
2023/03/06 19:40:49;;;;;;;8.00;1.40;;;11.90;99.00;;;;;;10428390;28;20052;-29
2023/03/06 19:45:52;;;;;;;4.40;1.10;;;10.40;99.90;;;;;;10426569;28;20497;-23
2023/03/06 19:50:54;;;;;;;6.68;1.27;;;10.30;99.90;;;;;;10426592;28;20143;-23
2023/03/06 19:56:03;;;;;;;3.85;1.85;;;10.80;99.90;;;;;;10433830;28;20463;-24
2023/03/06 20:01:08;;;;;;;7.78;1.83;;;13.10;93.40;;;;;;10417590;28;20073;-24
2023/03/06 20:06:14;;;;;;;7.07;1.83;;;13.00;99.70;;;;;;10419840;28;20052;-25
2023/03/06 20:11:17;;;;;;;10.88;2.25;;;11.00;99.90;;;;;;10437914;28;20844;-25
2023/03/06 20:16:20;;;;;;;;;;;10.80;99.90;;;;;;10431952;28;20073;-24
2023/03/06 20:21:22;;;;;;;3.90;1.42;;;10.70;99.90;;;;;;10441333;28;20329;-24
2023/03/06 20:26:25;;;;;;;11.40;1.90;;;8.90;99.90;;;;;;10427546;28;20037;-23
2023/03/06 20:31:29;;;;;;;11.35;2.25;;;9.60;99.90;;;;;;10438064;28;20576;-25
2023/03/06 20:36:34;;;;;;;6.05;1.40;;;11.40;99.90;;;;;;10435030;28;20064;-23
2023/03/06 20:41:37;;;;;;;12.82;2.38;;;12.00;99.90;;;;;;10439033;28;20045;-23
2023/03/06 20:46:40;;;;;;;6.05;2.22;;;11.20;99.90;;;;;;10431588;28;20076;-24
2023/03/06 20:51:42;;;;;;;4.03;1.55;;;9.30;99.90;;;;;;10430679;28;20049;-23
2023/03/06 20:56:48;;;;;;;10.13;1.73;;;8.20;99.90;;;;;;10429906;28;20118;-25
2023/03/06 21:01:51;;;;;;;13.93;1.70;;;7.60;99.90;;;;;;10445701;28;20529;-25
2023/03/06 21:06:53;;;;;;;5.32;1.50;;;8.50;99.90;;;;;;10430385;28;20045;-24
2023/03/06 21:11:55;;;;;;;9.53;1.47;;;9.10;99.90;;;;;;10432605;28;20488;-24
2023/03/06 21:17:00;;;;;;;7.90;2.00;;;10.20;99.90;;;;;;10432125;28;20515;-23
2023/03/06 21:22:02;;;;;;;3.78;1.67;;;10.60;99.90;;;;;;10438159;28;20111;-25
2023/03/06 21:27:04;;;;;;;7.43;1.43;;;12.10;99.90;;;;;;10433319;28;20125;-24
2023/03/06 21:32:07;;;;;;;7.27;2.53;;;12.70;99.80;;;;;;10442088;28;20068;-23
2023/03/06 21:37:09;;;;;;;11.63;3.03;;;14.00;90.80;;;;;;10433992;28;20084;-22
2023/03/06 21:42:11;;;;;;;8.95;2.40;;;10.20;99.90;;;;;;10434725;28;20083;-24
2023/03/06 21:47:14;;;;;;;3.97;1.98;;;9.00;99.90;;;;;;10437963;28;20047;-23
2023/03/06 21:52:16;;;;;;;7.13;1.73;;;9.60;99.90;;;;;;10436817;28;20037;-23
2023/03/06 21:57:18;;;;;;;5.47;1.52;;;10.00;99.90;;;;;;10430951;28;20053;-24
2023/03/06 22:02:21;;;;;;;9.52;1.92;;;11.00;99.90;;;;;;10444370;28;20457;-25
2023/03/06 22:07:23;;;;;;;6.32;1.65;;;9.10;99.90;;;;;;10434021;28;20045;-23
2023/03/06 22:12:25;;;;;;;9.82;2.47;;;10.80;99.90;;;;;;10439239;28;20473;-23
2023/03/06 22:17:30;;;;;;;8.80;1.65;;;8.20;99.90;;;;;;10434717;28;20135;-23
2023/03/06 22:22:32;;;;;;;5.10;1.40;;;10.40;99.90;;;;;;10442042;28;20517;-24
2023/03/06 22:27:33;;;;;;;3.33;1.02;;;10.00;99.90;;;;;;10424329;28;20535;-23
2023/03/06 22:32:37;;;;;;;4.97;1.30;;;8.70;99.90;;;;;;10440015;28;20140;-23
2023/03/06 22:37:38;;;;;;;4.90;1.83;;;8.30;99.90;;;;;;10425437;28;20139;-23
2023/03/06 22:42:40;;;;;;;6.03;2.42;;;8.80;99.90;;;;;;10426230;28;20044;-23
2023/03/06 22:47:44;;;;;;;12.32;2.35;;;8.20;99.90;;;;;;10416137;28;20045;-23
2023/03/06 22:52:45;;;;;;;8.40;2.25;;;9.00;99.90;;;;;;10436746;28;20116;-23
2023/03/06 22:57:47;;;;;;;8.85;2.20;;;8.10;99.90;;;;;;10438434;28;20053;-24
2023/03/06 23:02:51;;;;;;;6.07;2.63;;;7.90;99.90;;;;;;10428878;28;20037;-22
2023/03/06 23:07:53;;;;;;;3.40;1.33;;;9.40;99.90;;;;;;10436939;28;20625;-24
2023/03/06 23:12:54;;;;;;;8.60;2.97;;;9.60;99.90;;;;;;10425829;28;20087;-24
2023/03/06 23:17:58;;;;;;;9.93;2.08;;;8.10;99.90;;;;;;10441324;28;20099;-24
2023/03/06 23:23:00;;;;;;;10.35;2.08;;;10.50;99.90;;;;;;10433144;28;20037;-24
2023/03/06 23:28:02;;;;;;;8.85;2.58;;;9.20;99.90;;;;;;10427132;28;20076;-24
2023/03/06 23:33:05;;;;;;;6.10;1.90;;;7.60;99.90;;;;;;10424889;28;20504;-23
2023/03/06 23:38:07;;;;;;;8.35;2.85;;;8.90;99.90;;;;;;10437695;28;20243;-23
2023/03/06 23:43:09;;;;;;;7.20;2.40;;;9.40;99.90;;;;;;10434409;28;20049;-23
2023/03/06 23:48:13;;;;;;;5.60;2.30;;;9.30;99.90;;;;;;10435333;28;20063;-24
2023/03/06 23:53:15;;;;;;;6.78;1.98;;;8.80;99.90;;;;;;10444998;28;20040;-23
2023/03/06 23:58:18;;;;;;;9.90;2.75;;;10.30;99.90;;;;;;10430206;28;20073;-24
